createdAt,value
2022-11-01T00:00:06.393Z,30.50
2022-11-01T00:02:40.807Z,32.25
2022-11-01T00:05:09.443Z,32.53
2022-11-01T00:07:37.626Z,30.80
2022-11-01T00:10:06.813Z,32.30
2022-11-01T00:12:34.791Z,26.98
2022-11-01T00:15:02.607Z,29.23
2022-11-01T00:17:30.680Z,29.23
2022-11-01T00:19:58.625Z,33.30
2022-11-01T00:22:26.782Z,30.30
2022-11-01T00:24:55.223Z,29.65
2022-11-01T00:27:23.189Z,31.48
2022-11-01T00:29:51.010Z,28.83
2022-11-01T00:32:19.476Z,27.17
2022-11-01T00:34:47.300Z,29.10
2022-11-01T00:37:15.138Z,28.38
2022-11-01T00:39:43.385Z,30.40
2022-11-01T00:42:11.190Z,26.50
2022-11-01T00:44:39.100Z,29.95
2022-11-01T00:47:07.058Z,29.75
2022-11-01T00:49:34.880Z,31.75
2022-11-01T00:52:02.869Z,31.60
2022-11-01T00:54:30.924Z,29.25
2022-11-01T00:56:58.756Z,29.27
2022-11-01T00:59:27.233Z,27.88
2022-11-01T01:01:55.595Z,29.33
2022-11-01T01:04:24.218Z,29.52
2022-11-01T01:06:52.439Z,29.55
2022-11-01T01:09:20.859Z,27.45
2022-11-01T01:11:48.756Z,24.88
2022-11-01T01:14:16.605Z,24.40
2022-11-01T01:16:44.710Z,23.52
2022-11-01T01:19:13.153Z,24.70
2022-11-01T01:21:42.023Z,26.52
2022-11-01T01:24:12.720Z,26.25
2022-11-01T01:26:41.574Z,23.35
2022-11-01T01:29:09.369Z,22.52
2022-11-01T01:31:39.125Z,23.13
2022-11-01T01:34:07.016Z,23.58
2022-11-01T01:36:35.069Z,23.48
2022-11-01T01:39:03.277Z,22.02
2022-11-01T01:41:49.702Z,22.70
2022-11-01T01:44:51.802Z,20.92
2022-11-01T01:50:23.363Z,18.83
2022-11-01T01:53:13.864Z,22.15
2022-11-01T01:55:55.133Z,21.55
2022-11-01T01:58:29.745Z,20.67
2022-11-01T02:00:58.629Z,20.13
2022-11-01T02:03:32.253Z,18.65
2022-11-01T02:06:12.794Z,18.58
2022-11-01T02:08:50.473Z,19.73
2022-11-01T02:11:19.285Z,18.15
2022-11-01T02:13:47.297Z,20.90
2022-11-01T02:16:57.671Z,18.25
2022-11-01T02:20:06.752Z,17.05
2022-11-01T02:22:58.843Z,22.08
2022-11-01T02:25:31.220Z,17.15
2022-11-01T02:28:29.984Z,21.17
2022-11-01T02:31:27.417Z,21.35
2022-11-01T02:34:05.961Z,18.50
2022-11-01T02:36:48.591Z,22.38
2022-11-01T02:39:29.194Z,20.27
2022-11-01T02:42:26.199Z,18.90
2022-11-01T02:45:04.437Z,20.42
2022-11-01T02:47:34.142Z,19.50
2022-11-01T02:50:09.860Z,20.30
2022-11-01T02:52:41.037Z,19.02
2022-11-01T02:55:35.768Z,18.88
2022-11-01T02:58:22.508Z,17.27
2022-11-01T03:00:51.013Z,18.40
2022-11-01T03:03:32.914Z,18.70
2022-11-01T03:08:41.212Z,19.92
2022-11-01T03:11:17.913Z,18.40
2022-11-01T03:14:19.014Z,18.67
2022-11-01T03:17:12.183Z,16.17
2022-11-01T03:20:14.325Z,19.30
2022-11-01T03:25:41.256Z,21.05
2022-11-01T03:28:21.127Z,24.15
2022-11-01T03:31:02.940Z,23.52
2022-11-01T03:36:11.836Z,23.83
2022-11-01T03:38:51.768Z,19.63
2022-11-01T03:41:21.313Z,21.00
2022-11-01T03:43:50.336Z,21.65
2022-11-01T03:46:18.576Z,22.40
2022-11-01T03:48:46.513Z,18.05
2022-11-01T03:51:14.363Z,22.48
2022-11-01T03:53:42.286Z,19.33
2022-11-01T03:56:10.206Z,22.20
2022-11-01T03:58:45.376Z,24.08
2022-11-01T04:01:16.202Z,22.23
2022-11-01T04:03:45.358Z,22.35
2022-11-01T04:06:13.329Z,20.02
2022-11-01T04:08:41.659Z,22.30
2022-11-01T04:11:09.599Z,20.55
2022-11-01T04:13:39.474Z,21.75
2022-11-01T04:16:29.078Z,26.33
2022-11-01T04:19:15.606Z,20.58
2022-11-01T04:21:43.575Z,20.35
2022-11-01T04:24:11.958Z,19.50
2022-11-01T04:26:39.826Z,20.10
2022-11-01T04:29:10.676Z,19.13
2022-11-01T04:31:38.664Z,22.90
2022-11-01T04:34:06.881Z,22.27
2022-11-01T04:36:37.827Z,17.48
2022-11-01T04:39:06.322Z,21.70
2022-11-01T04:41:34.567Z,19.60
2022-11-01T04:44:02.593Z,24.85
2022-11-01T04:46:32.093Z,23.90
2022-11-01T04:49:00.144Z,23.15
2022-11-01T04:51:28.028Z,22.05
2022-11-01T04:53:56.055Z,20.85
2022-11-01T04:56:24.001Z,25.42
2022-11-01T04:58:51.826Z,20.35
2022-11-01T05:01:19.886Z,22.48
2022-11-01T05:03:49.489Z,23.05
2022-11-01T05:06:17.669Z,20.98
2022-11-01T05:08:45.554Z,19.10
2022-11-01T05:11:13.558Z,19.15
2022-11-01T05:13:41.599Z,20.67
2022-11-01T05:16:24.982Z,22.10
2022-11-01T05:18:52.976Z,21.50
2022-11-01T05:21:21.009Z,20.35
2022-11-01T05:23:49.401Z,22.05
2022-11-01T05:26:17.538Z,19.67
2022-11-01T05:28:45.723Z,21.50
2022-11-01T05:31:13.544Z,19.80
2022-11-01T05:33:41.643Z,19.95
2022-11-01T05:36:09.610Z,20.30
2022-11-01T05:38:37.470Z,19.02
2022-11-01T05:41:05.671Z,22.30
2022-11-01T05:43:33.773Z,22.52
2022-11-01T05:46:08.089Z,19.42
2022-11-01T05:48:36.030Z,21.42
2022-11-01T05:51:04.020Z,20.83
2022-11-01T05:53:31.959Z,20.42
2022-11-01T05:56:01.731Z,20.38
2022-11-01T05:58:31.013Z,21.77
2022-11-01T06:01:09.119Z,25.27
2022-11-01T06:03:37.491Z,23.05
2022-11-01T06:06:05.614Z,22.83
2022-11-01T06:08:33.601Z,18.98
2022-11-01T06:11:06.312Z,24.48
2022-11-01T06:13:34.591Z,19.58
2022-11-01T06:16:05.676Z,22.27
2022-11-01T06:18:34.036Z,20.67
2022-11-01T06:21:02.193Z,19.67
2022-11-01T06:23:30.164Z,21.20
2022-11-01T06:26:03.544Z,19.48
2022-11-01T06:28:32.032Z,20.80
2022-11-01T06:33:37.468Z,22.27
2022-11-01T06:36:06.298Z,19.23
2022-11-01T06:38:34.866Z,20.20
2022-11-01T06:41:03.285Z,24.48
2022-11-01T06:43:32.526Z,23.85
2022-11-01T06:46:01.367Z,21.08
2022-11-01T06:48:29.748Z,24.33
2022-11-01T06:50:58.107Z,22.17
2022-11-01T06:53:26.135Z,24.17
2022-11-01T06:55:53.964Z,20.73
2022-11-01T06:58:22.095Z,21.20
2022-11-01T07:00:50.077Z,19.50
2022-11-01T07:03:18.238Z,23.10
2022-11-01T07:05:48.504Z,20.70
2022-11-01T07:08:16.436Z,20.88
2022-11-01T07:10:44.685Z,23.55
2022-11-01T07:13:14.148Z,20.67
2022-11-01T07:15:44.071Z,20.80
2022-11-01T07:18:15.130Z,20.88
2022-11-01T07:20:43.186Z,23.15
2022-11-01T07:23:16.576Z,23.33
2022-11-01T07:25:45.475Z,23.58
2022-11-01T07:28:14.238Z,21.50
2022-11-01T07:30:42.400Z,21.55
2022-11-01T07:33:10.383Z,24.30
2022-11-01T07:35:38.797Z,24.63
2022-11-01T07:38:11.491Z,21.35
2022-11-01T07:40:41.659Z,22.45
2022-11-01T07:43:10.871Z,22.92
2022-11-01T07:45:38.778Z,22.23
2022-11-01T07:48:13.661Z,21.67
2022-11-01T07:50:43.475Z,18.67
2022-11-01T07:53:19.459Z,25.40
2022-11-01T07:55:47.659Z,22.85
2022-11-01T07:58:16.743Z,24.58
2022-11-01T08:00:46.293Z,19.65
2022-11-01T08:03:17.856Z,18.80
2022-11-01T08:05:48.168Z,21.15
2022-11-01T08:08:18.222Z,17.48
2022-11-01T08:10:48.462Z,17.88
2022-11-01T08:13:25.148Z,16.63
2022-11-01T08:15:54.049Z,16.95
2022-11-01T08:18:24.611Z,21.30
2022-11-01T08:20:53.412Z,16.92
2022-11-01T08:23:23.068Z,17.52
2022-11-01T08:25:51.043Z,15.40
2022-11-01T08:28:21.111Z,16.35
2022-11-01T08:30:50.615Z,18.05
2022-11-01T08:33:18.524Z,17.10
2022-11-01T08:35:50.434Z,19.67
2022-11-01T08:38:19.548Z,18.08
2022-11-01T08:40:48.653Z,14.90
2022-11-01T08:43:17.009Z,15.77
2022-11-01T08:45:49.360Z,20.50
2022-11-01T08:48:23.773Z,15.85
2022-11-01T08:50:55.902Z,16.75
2022-11-01T08:53:25.217Z,14.18
2022-11-01T08:55:57.150Z,17.50
2022-11-01T08:58:27.137Z,13.40
2022-11-01T09:00:55.122Z,15.50
2022-11-01T09:03:23.722Z,12.52
2022-11-01T09:05:52.392Z,14.43
2022-11-01T09:08:20.411Z,13.48
2022-11-01T09:10:51.500Z,12.18
2022-11-01T09:13:20.531Z,11.32
2022-11-01T09:15:48.590Z,13.10
2022-11-01T09:18:16.575Z,13.73
2022-11-01T09:20:44.734Z,13.90
2022-11-01T09:23:12.799Z,13.88
2022-11-01T09:25:40.900Z,12.85
2022-11-01T09:28:08.768Z,13.60
2022-11-01T09:30:41.487Z,13.10
2022-11-01T09:33:18.793Z,10.25
2022-11-01T09:35:55.311Z,14.50
2022-11-01T09:38:27.255Z,12.88
2022-11-01T09:41:08.151Z,12.82
2022-11-01T09:43:40.088Z,13.00
2022-11-01T09:46:14.447Z,15.50
2022-11-01T09:48:44.317Z,10.68
2022-11-01T09:51:24.353Z,11.20
2022-11-01T09:53:59.777Z,12.38
2022-11-01T09:56:40.792Z,12.38
2022-11-01T09:59:27.451Z,10.38
2022-11-01T10:02:10.401Z,11.98
2022-11-01T10:04:45.299Z,13.60
2022-11-01T10:07:44.632Z,11.90
2022-11-01T10:10:39.909Z,13.55
2022-11-01T10:13:31.485Z,18.25
2022-11-01T10:16:18.499Z,10.43
2022-11-01T10:19:16.319Z,12.23
2022-11-01T10:21:56.469Z,10.20
2022-11-01T10:24:52.971Z,12.45
2022-11-01T10:27:42.694Z,10.85
2022-11-01T10:30:16.648Z,9.25
2022-11-01T10:33:19.062Z,11.10
2022-11-01T10:36:11.580Z,10.52
2022-11-01T10:39:16.565Z,10.07
2022-11-01T10:41:43.569Z,8.65
2022-11-01T10:44:27.542Z,9.48
2022-11-01T10:46:58.067Z,12.55
2022-11-01T10:52:47.891Z,8.38
2022-11-01T10:55:47.614Z,11.48
2022-11-01T10:58:38.232Z,10.02
2022-11-01T11:01:11.613Z,10.43
2022-11-01T11:03:41.736Z,11.45
2022-11-01T11:06:13.173Z,8.80
2022-11-01T11:08:44.782Z,9.55
2022-11-01T11:11:16.642Z,11.82
2022-11-01T11:13:55.073Z,10.38
2022-11-01T11:16:54.111Z,8.55
2022-11-01T11:19:30.867Z,8.68
2022-11-01T11:22:00.441Z,10.27
2022-11-01T11:24:38.794Z,9.93
2022-11-01T11:27:34.303Z,9.23
2022-11-01T11:30:08.790Z,8.90
2022-11-01T11:32:39.663Z,14.00
2022-11-01T11:35:22.266Z,10.65
2022-11-01T11:37:55.362Z,10.55
2022-11-01T11:40:25.953Z,8.73
2022-11-01T11:43:16.298Z,10.80
2022-11-01T11:45:44.366Z,7.43
2022-11-01T11:48:23.074Z,10.80
2022-11-01T11:51:06.827Z,7.18
2022-11-01T11:53:38.344Z,10.70
2022-11-01T11:56:09.250Z,8.32
2022-11-01T11:58:50.879Z,8.45
2022-11-01T12:04:04.937Z,6.22
2022-11-01T12:06:41.639Z,12.67
2022-11-01T12:09:46.637Z,10.57
2022-11-01T12:12:24.553Z,9.27
2022-11-01T12:14:53.752Z,10.80
2022-11-01T12:17:46.340Z,7.03
2022-11-01T12:20:38.457Z,7.15
2022-11-01T12:23:29.948Z,9.48
2022-11-01T12:26:01.921Z,11.75
2022-11-01T12:28:38.874Z,11.02
2022-11-01T12:31:19.608Z,9.45
2022-11-01T12:34:25.975Z,8.25
2022-11-01T12:37:34.566Z,9.60
2022-11-01T12:40:05.740Z,13.10
2022-11-01T12:42:48.514Z,8.20
2022-11-01T12:45:44.560Z,6.60
2022-11-01T12:48:50.315Z,9.52
2022-11-01T12:51:29.270Z,9.43
2022-11-01T12:54:06.847Z,11.50
2022-11-01T12:56:34.723Z,8.13
2022-11-01T12:59:02.706Z,8.50
2022-11-01T13:01:56.619Z,10.93
2022-11-01T13:04:51.711Z,8.57
2022-11-01T13:07:47.873Z,9.52
2022-11-01T13:10:37.210Z,6.75
2022-11-01T13:13:49.719Z,8.40
2022-11-01T13:16:32.672Z,7.70
2022-11-01T13:19:42.060Z,6.57
2022-11-01T13:22:37.832Z,10.25
2022-11-01T13:25:22.811Z,4.95
2022-11-01T13:28:09.467Z,7.05
2022-11-01T13:30:49.159Z,6.97
2022-11-01T13:33:35.590Z,8.98
2022-11-01T13:36:33.988Z,8.85
2022-11-01T13:39:13.440Z,8.25
2022-11-01T13:42:16.218Z,7.25
2022-11-01T13:45:23.419Z,9.88
2022-11-01T13:48:42.668Z,11.75
2022-11-01T13:51:27.960Z,5.63
2022-11-01T13:54:23.417Z,9.15
2022-11-01T13:57:09.586Z,13.13
2022-11-01T13:59:37.846Z,9.02
2022-11-01T14:02:24.030Z,6.55
2022-11-01T14:05:07.294Z,7.07
2022-11-01T14:07:45.654Z,8.00
2022-11-01T14:10:20.176Z,7.55
2022-11-01T14:13:08.192Z,9.23
2022-11-01T14:15:59.628Z,6.55
2022-11-01T14:18:28.203Z,11.95
2022-11-01T14:21:18.824Z,11.07
2022-11-01T14:23:49.225Z,10.32
2022-11-01T14:26:20.346Z,10.77
2022-11-01T14:28:51.265Z,9.43
2022-11-01T14:31:24.154Z,13.90
2022-11-01T14:33:57.412Z,9.10
2022-11-01T14:36:34.216Z,12.38
2022-11-01T14:39:20.079Z,8.77
2022-11-01T14:41:55.183Z,13.45
2022-11-01T14:44:38.809Z,9.70
2022-11-01T14:47:40.383Z,11.80
2022-11-01T14:50:41.374Z,10.57
2022-11-01T14:53:35.030Z,9.10
2022-11-01T14:56:21.048Z,10.45
2022-11-01T14:58:49.374Z,13.77
2022-11-01T15:01:23.619Z,11.77
2022-11-01T15:03:57.854Z,9.20
2022-11-01T15:06:30.419Z,13.57
2022-11-01T15:09:04.026Z,9.45
2022-11-01T15:11:35.306Z,11.85
2022-11-01T15:14:08.448Z,14.10
2022-11-01T15:16:37.025Z,10.40
2022-11-01T15:19:19.069Z,10.10
2022-11-01T15:21:48.205Z,10.70
2022-11-01T15:24:24.665Z,11.05
2022-11-01T15:26:53.980Z,10.30
2022-11-01T15:29:25.224Z,12.50
2022-11-01T15:31:59.477Z,13.02
2022-11-01T15:34:31.089Z,22.02
2022-11-01T15:37:10.453Z,18.95
2022-11-01T15:39:38.358Z,24.90
2022-11-01T15:42:21.474Z,17.60
2022-11-01T15:44:52.057Z,14.52
2022-11-01T15:47:28.380Z,14.70
2022-11-01T15:50:08.448Z,16.63
2022-11-01T15:52:38.413Z,15.07
2022-11-01T15:55:16.694Z,18.02
2022-11-01T15:57:55.065Z,19.00
2022-11-01T16:00:29.932Z,15.23
2022-11-01T16:03:08.108Z,24.02
2022-11-01T16:05:48.002Z,19.15
2022-11-01T16:08:30.361Z,18.63
2022-11-01T16:11:01.920Z,22.73
2022-11-01T16:13:32.504Z,17.90
2022-11-01T16:16:07.968Z,22.60
2022-11-01T16:18:39.432Z,22.98
2022-11-01T16:21:27.901Z,16.23
2022-11-01T16:24:21.500Z,19.30
2022-11-01T16:27:04.007Z,21.67
2022-11-01T16:30:00.411Z,32.20
2022-11-01T16:32:34.227Z,30.48
2022-11-01T16:35:33.641Z,25.55
2022-11-01T16:38:02.674Z,31.50
2022-11-01T16:40:32.714Z,28.83
2022-11-01T16:43:00.671Z,23.95
2022-11-01T16:45:29.134Z,30.30
2022-11-01T16:47:58.549Z,25.05
2022-11-01T16:50:27.310Z,42.40
2022-11-01T16:52:56.438Z,32.42
2022-11-01T16:55:27.287Z,41.75
2022-11-01T16:57:57.549Z,46.67
2022-11-01T17:00:26.576Z,46.58
2022-11-01T17:02:57.020Z,41.88
2022-11-01T17:05:25.685Z,30.38
2022-11-01T17:07:53.738Z,25.15
2022-11-01T17:10:31.089Z,26.13
2022-11-01T17:13:03.468Z,33.55
2022-11-01T17:15:42.653Z,24.80
2022-11-01T17:18:25.635Z,34.60
2022-11-01T17:20:58.641Z,38.00
2022-11-01T17:23:29.964Z,29.20
2022-11-01T17:25:58.112Z,38.05
2022-11-01T17:28:26.354Z,75.45
2022-11-01T17:30:55.490Z,116.78
2022-11-01T17:33:23.407Z,39.70
2022-11-01T17:35:52.389Z,37.80
2022-11-01T17:38:34.940Z,50.08
2022-11-01T17:41:07.763Z,51.20
2022-11-01T17:43:36.709Z,50.25
2022-11-01T17:46:24.252Z,55.03
2022-11-01T17:48:52.715Z,50.10
2022-11-01T17:51:23.453Z,58.97
2022-11-01T17:53:56.074Z,53.53
2022-11-01T17:56:25.394Z,60.63
2022-11-01T17:58:54.618Z,51.72
2022-11-01T18:01:24.361Z,53.80
2022-11-01T18:03:52.930Z,38.80
2022-11-01T18:06:21.266Z,34.95
2022-11-01T18:08:51.926Z,43.38
2022-11-01T18:11:46.417Z,43.08
2022-11-01T18:14:24.954Z,46.90
2022-11-01T18:17:27.151Z,43.67
2022-11-01T18:23:06.828Z,35.33
2022-11-01T18:25:47.728Z,35.50
2022-11-01T18:28:25.393Z,35.10
2022-11-01T18:31:07.005Z,36.10
2022-11-01T18:33:40.623Z,49.45
2022-11-01T18:36:14.357Z,43.60
2022-11-01T18:39:10.693Z,55.50
2022-11-01T18:41:39.951Z,45.17
2022-11-01T18:44:13.493Z,45.00
2022-11-01T18:46:58.252Z,44.50
2022-11-01T18:49:28.120Z,42.45
2022-11-01T18:51:56.212Z,36.40
2022-11-01T18:54:33.126Z,39.60
2022-11-01T18:57:14.634Z,39.13
2022-11-01T18:59:43.916Z,42.15
2022-11-01T19:02:11.876Z,50.75
2022-11-01T19:04:45.780Z,49.17
2022-11-01T19:07:23.764Z,47.08
2022-11-01T19:10:13.977Z,47.88
2022-11-01T19:12:44.741Z,44.70
2022-11-01T19:15:31.672Z,44.85
2022-11-01T19:18:03.639Z,53.28
2022-11-01T19:20:42.857Z,52.75
2022-11-01T19:23:19.695Z,47.08
2022-11-01T19:25:49.395Z,42.10
2022-11-01T19:28:40.592Z,43.58
2022-11-01T19:31:38.714Z,44.28
2022-11-01T19:34:31.859Z,45.13
2022-11-01T19:37:05.398Z,45.28
2022-11-01T19:39:40.740Z,47.88
2022-11-01T19:42:31.801Z,44.33
2022-11-01T19:45:25.106Z,50.75
2022-11-01T19:47:53.348Z,45.30
2022-11-01T19:50:43.967Z,46.95
2022-11-01T19:53:34.107Z,43.53
2022-11-01T19:56:26.624Z,42.10
2022-11-01T19:58:55.963Z,41.38
2022-11-01T20:01:42.965Z,43.75
2022-11-01T20:04:26.161Z,48.78
2022-11-01T20:07:02.073Z,48.08
2022-11-01T20:09:35.705Z,40.28
2022-11-01T20:12:04.361Z,49.15
2022-11-01T20:14:34.308Z,53.85
2022-11-01T20:17:03.946Z,50.75
2022-11-01T20:19:32.894Z,46.55
2022-11-01T20:22:01.226Z,48.45
2022-11-01T20:24:31.157Z,49.35
2022-11-01T20:27:02.635Z,51.75
2022-11-01T20:29:31.064Z,54.83
2022-11-01T20:31:59.159Z,52.95
2022-11-01T20:34:30.491Z,51.80
2022-11-01T20:39:47.001Z,56.03
2022-11-01T20:42:15.327Z,54.75
2022-11-01T20:44:43.349Z,49.60
2022-11-01T20:47:11.439Z,58.95
2022-11-01T20:49:39.364Z,50.00
2022-11-01T20:52:33.643Z,49.83
2022-11-01T20:54:56.150Z,46.85
2022-11-01T20:57:28.321Z,56.47
2022-11-01T21:00:21.421Z,57.40
2022-11-01T21:02:48.181Z,47.90
2022-11-01T21:05:30.296Z,55.28
2022-11-01T21:08:24.364Z,58.78
2022-11-01T21:11:12.016Z,53.40
2022-11-01T21:13:46.998Z,52.95
2022-11-01T21:16:28.861Z,57.65
2022-11-01T21:21:47.034Z,59.00
2022-11-01T21:24:32.887Z,61.97
2022-11-01T21:27:23.982Z,57.75
2022-11-01T21:29:54.410Z,50.70
2022-11-01T21:32:34.665Z,54.25
2022-11-01T21:35:39.054Z,53.58
2022-11-01T21:38:41.580Z,48.00
2022-11-01T21:41:28.872Z,52.13
2022-11-01T21:43:57.918Z,45.92
2022-11-01T21:46:37.942Z,51.70
2022-11-01T21:49:31.095Z,55.83
2022-11-01T21:52:02.800Z,50.92
2022-11-01T21:57:07.059Z,57.50
2022-11-01T21:59:36.141Z,58.22
2022-11-01T22:02:11.085Z,61.42
2022-11-01T22:04:39.396Z,55.47
2022-11-01T22:07:09.870Z,60.58
2022-11-01T22:09:39.310Z,62.08
2022-11-01T22:12:11.158Z,54.35
2022-11-01T22:14:39.169Z,54.63
2022-11-01T22:17:07.251Z,61.38
2022-11-01T22:19:35.254Z,52.08
2022-11-01T22:22:03.224Z,53.65
2022-11-01T22:24:31.519Z,53.10
2022-11-01T22:26:59.685Z,46.88
2022-11-01T22:29:27.849Z,50.85
2022-11-01T22:31:55.972Z,54.90
2022-11-01T22:34:24.399Z,51.55
2022-11-01T22:36:52.621Z,59.13
2022-11-01T22:39:24.054Z,49.55
2022-11-01T22:41:52.645Z,51.67
2022-11-01T22:44:27.958Z,47.63
2022-11-01T22:47:01.700Z,53.55
2022-11-01T22:49:43.612Z,49.13
2022-11-01T22:55:13.162Z,52.58
2022-11-01T22:58:03.440Z,53.00
2022-11-01T23:00:41.006Z,50.47
2022-11-01T23:03:35.487Z,57.03
2022-11-01T23:06:30.897Z,59.58
2022-11-01T23:09:16.869Z,55.05
2022-11-01T23:12:13.404Z,53.53
2022-11-01T23:14:47.989Z,50.35
2022-11-01T23:17:25.185Z,53.92
2022-11-01T23:20:00.258Z,52.97
2022-11-01T23:22:36.061Z,52.70
2022-11-01T23:25:05.205Z,52.30
2022-11-01T23:27:33.498Z,47.35
2022-11-01T23:30:03.194Z,57.22
2022-11-01T23:32:32.564Z,58.88
2022-11-01T23:35:20.541Z,50.47
2022-11-01T23:37:50.843Z,52.70
2022-11-01T23:40:22.037Z,48.60
2022-11-01T23:42:50.613Z,57.70
2022-11-01T23:45:34.085Z,53.33
2022-11-01T23:48:02.585Z,52.78
2022-11-01T23:50:35.140Z,54.17
2022-11-01T23:53:10.472Z,49.40
2022-11-01T23:55:45.084Z,59.20
2022-11-01T23:58:19.685Z,53.47
